sensor_id;sensor_type;location;lat;lon;timestamp;P1;durP1;ratioP1;P2;durP2;ratioP2
36457;SDS011;22480;50.546;12.292;2023-04-16T00:00:11;104.45;;;15.43;;
36457;SDS011;22480;50.546;12.292;2023-04-16T00:02:37;125.72;;;11.05;;
36457;SDS011;22480;50.546;12.292;2023-04-16T00:05:02;98.13;;;10.07;;
36457;SDS011;22480;50.546;12.292;2023-04-16T00:07:28;38.72;;;9.52;;
36457;SDS011;22480;50.546;12.292;2023-04-16T00:09:54;283.48;;;28.15;;
36457;SDS011;22480;50.546;12.292;2023-04-16T00:12:20;67.78;;;11.82;;
36457;SDS011;22480;50.546;12.292;2023-04-16T00:14:47;49.83;;;13.15;;
36457;SDS011;22480;50.546;12.292;2023-04-16T00:17:13;49.08;;;11.77;;
36457;SDS011;22480;50.546;12.292;2023-04-16T00:19:39;41.28;;;11.27;;
36457;SDS011;22480;50.546;12.292;2023-04-16T00:22:05;52.10;;;12.77;;
36457;SDS011;22480;50.546;12.292;2023-04-16T00:24:30;37.85;;;11.30;;
36457;SDS011;22480;50.546;12.292;2023-04-16T00:26:56;40.47;;;11.30;;
36457;SDS011;22480;50.546;12.292;2023-04-16T00:29:22;49.17;;;12.27;;
36457;SDS011;22480;50.546;12.292;2023-04-16T00:31:48;54.10;;;12.60;;
36457;SDS011;22480;50.546;12.292;2023-04-16T00:34:13;51.75;;;11.75;;
36457;SDS011;22480;50.546;12.292;2023-04-16T00:36:39;45.58;;;12.23;;
36457;SDS011;22480;50.546;12.292;2023-04-16T00:39:05;72.43;;;13.45;;
36457;SDS011;22480;50.546;12.292;2023-04-16T00:41:31;138.68;;;15.05;;
36457;SDS011;22480;50.546;12.292;2023-04-16T00:43:57;129.98;;;18.02;;
36457;SDS011;22480;50.546;12.292;2023-04-16T00:46:22;142.52;;;19.15;;
36457;SDS011;22480;50.546;12.292;2023-04-16T00:48:49;247.25;;;24.48;;
36457;SDS011;22480;50.546;12.292;2023-04-16T00:51:17;98.40;;;13.13;;
36457;SDS011;22480;50.546;12.292;2023-04-16T00:53:44;127.63;;;16.65;;
36457;SDS011;22480;50.546;12.292;2023-04-16T00:56:11;186.45;;;19.20;;
36457;SDS011;22480;50.546;12.292;2023-04-16T00:58:37;260.75;;;24.92;;
36457;SDS011;22480;50.546;12.292;2023-04-16T01:01:04;285.35;;;28.00;;
36457;SDS011;22480;50.546;12.292;2023-04-16T01:03:36;371.10;;;34.40;;
36457;SDS011;22480;50.546;12.292;2023-04-16T01:06:03;168.85;;;22.52;;
36457;SDS011;22480;50.546;12.292;2023-04-16T01:08:30;175.80;;;22.40;;
36457;SDS011;22480;50.546;12.292;2023-04-16T01:10:56;444.75;;;41.17;;
36457;SDS011;22480;50.546;12.292;2023-04-16T01:13:21;550.22;;;47.05;;
36457;SDS011;22480;50.546;12.292;2023-04-16T01:15:47;392.25;;;36.47;;
36457;SDS011;22480;50.546;12.292;2023-04-16T01:18:14;379.70;;;41.03;;
36457;SDS011;22480;50.546;12.292;2023-04-16T01:20:40;453.88;;;43.63;;
36457;SDS011;22480;50.546;12.292;2023-04-16T01:23:06;247.68;;;28.05;;
36457;SDS011;22480;50.546;12.292;2023-04-16T01:25:32;425.35;;;36.63;;
36457;SDS011;22480;50.546;12.292;2023-04-16T01:27:57;491.38;;;38.85;;
36457;SDS011;22480;50.546;12.292;2023-04-16T01:30:23;462.85;;;38.72;;
36457;SDS011;22480;50.546;12.292;2023-04-16T01:33:01;285.25;;;34.30;;
36457;SDS011;22480;50.546;12.292;2023-04-16T01:35:28;207.57;;;29.92;;
36457;SDS011;22480;50.546;12.292;2023-04-16T01:37:53;223.00;;;36.22;;
36457;SDS011;22480;50.546;12.292;2023-04-16T01:40:19;298.75;;;28.90;;
36457;SDS011;22480;50.546;12.292;2023-04-16T01:42:45;416.15;;;45.72;;
36457;SDS011;22480;50.546;12.292;2023-04-16T01:45:11;86.28;;;23.17;;
36457;SDS011;22480;50.546;12.292;2023-04-16T01:47:37;182.18;;;27.30;;
36457;SDS011;22480;50.546;12.292;2023-04-16T01:50:03;154.10;;;28.33;;
36457;SDS011;22480;50.546;12.292;2023-04-16T01:52:29;243.63;;;37.00;;
36457;SDS011;22480;50.546;12.292;2023-04-16T01:54:55;157.15;;;26.00;;
36457;SDS011;22480;50.546;12.292;2023-04-16T01:57:21;204.13;;;33.35;;
36457;SDS011;22480;50.546;12.292;2023-04-16T01:59:48;283.02;;;34.50;;
36457;SDS011;22480;50.546;12.292;2023-04-16T02:02:14;163.02;;;28.80;;
36457;SDS011;22480;50.546;12.292;2023-04-16T02:04:41;168.18;;;31.92;;
36457;SDS011;22480;50.546;12.292;2023-04-16T02:07:10;335.23;;;40.05;;
36457;SDS011;22480;50.546;12.292;2023-04-16T02:09:37;258.50;;;33.78;;
36457;SDS011;22480;50.546;12.292;2023-04-16T02:12:05;226.02;;;33.35;;
36457;SDS011;22480;50.546;12.292;2023-04-16T02:14:32;279.23;;;41.38;;
36457;SDS011;22480;50.546;12.292;2023-04-16T02:16:58;116.80;;;27.50;;
36457;SDS011;22480;50.546;12.292;2023-04-16T02:19:39;203.77;;;28.08;;
36457;SDS011;22480;50.546;12.292;2023-04-16T02:22:07;180.23;;;32.92;;
36457;SDS011;22480;50.546;12.292;2023-04-16T02:24:33;209.00;;;30.70;;
36457;SDS011;22480;50.546;12.292;2023-04-16T02:27:03;270.35;;;33.95;;
36457;SDS011;22480;50.546;12.292;2023-04-16T02:29:29;133.75;;;23.50;;
36457;SDS011;22480;50.546;12.292;2023-04-16T02:32:03;203.65;;;28.45;;
36457;SDS011;22480;50.546;12.292;2023-04-16T02:34:31;172.82;;;28.42;;
36457;SDS011;22480;50.546;12.292;2023-04-16T02:36:58;108.57;;;22.48;;
36457;SDS011;22480;50.546;12.292;2023-04-16T02:39:24;183.05;;;27.55;;
36457;SDS011;22480;50.546;12.292;2023-04-16T02:41:51;187.88;;;24.15;;
36457;SDS011;22480;50.546;12.292;2023-04-16T02:44:18;164.00;;;27.83;;
36457;SDS011;22480;50.546;12.292;2023-04-16T02:46:45;123.18;;;24.63;;
36457;SDS011;22480;50.546;12.292;2023-04-16T02:49:11;116.22;;;23.30;;
36457;SDS011;22480;50.546;12.292;2023-04-16T02:51:37;122.97;;;24.23;;
36457;SDS011;22480;50.546;12.292;2023-04-16T02:54:02;169.25;;;27.90;;
36457;SDS011;22480;50.546;12.292;2023-04-16T02:56:29;131.80;;;23.48;;
36457;SDS011;22480;50.546;12.292;2023-04-16T02:58:55;178.68;;;28.42;;
36457;SDS011;22480;50.546;12.292;2023-04-16T03:01:20;191.20;;;28.63;;
36457;SDS011;22480;50.546;12.292;2023-04-16T03:03:46;124.00;;;23.05;;
36457;SDS011;22480;50.546;12.292;2023-04-16T03:06:12;103.07;;;20.67;;
36457;SDS011;22480;50.546;12.292;2023-04-16T03:08:37;90.82;;;19.48;;
36457;SDS011;22480;50.546;12.292;2023-04-16T03:11:03;88.32;;;20.08;;
36457;SDS011;22480;50.546;12.292;2023-04-16T03:13:29;86.93;;;19.33;;
36457;SDS011;22480;50.546;12.292;2023-04-16T03:15:54;105.15;;;21.92;;
36457;SDS011;22480;50.546;12.292;2023-04-16T03:18:20;104.82;;;21.75;;
36457;SDS011;22480;50.546;12.292;2023-04-16T03:20:51;108.10;;;21.00;;
36457;SDS011;22480;50.546;12.292;2023-04-16T03:23:17;79.45;;;17.40;;
36457;SDS011;22480;50.546;12.292;2023-04-16T03:25:43;72.90;;;17.40;;
36457;SDS011;22480;50.546;12.292;2023-04-16T03:28:13;79.65;;;16.45;;
36457;SDS011;22480;50.546;12.292;2023-04-16T03:30:39;169.73;;;26.15;;
36457;SDS011;22480;50.546;12.292;2023-04-16T03:33:06;119.60;;;21.73;;
36457;SDS011;22480;50.546;12.292;2023-04-16T03:35:32;97.63;;;19.75;;
36457;SDS011;22480;50.546;12.292;2023-04-16T03:37:59;88.03;;;18.80;;
36457;SDS011;22480;50.546;12.292;2023-04-16T03:40:25;84.00;;;18.20;;
36457;SDS011;22480;50.546;12.292;2023-04-16T03:42:51;66.32;;;16.20;;
36457;SDS011;22480;50.546;12.292;2023-04-16T03:45:17;66.93;;;16.05;;
36457;SDS011;22480;50.546;12.292;2023-04-16T03:47:45;94.85;;;17.98;;
36457;SDS011;22480;50.546;12.292;2023-04-16T03:50:19;99.13;;;21.45;;
36457;SDS011;22480;50.546;12.292;2023-04-16T03:52:46;90.50;;;18.70;;
36457;SDS011;22480;50.546;12.292;2023-04-16T03:55:14;91.07;;;19.13;;
36457;SDS011;22480;50.546;12.292;2023-04-16T03:57:40;97.22;;;20.35;;
36457;SDS011;22480;50.546;12.292;2023-04-16T04:00:10;88.80;;;19.50;;
36457;SDS011;22480;50.546;12.292;2023-04-16T04:03:04;99.63;;;21.33;;
36457;SDS011;22480;50.546;12.292;2023-04-16T04:05:34;105.53;;;19.55;;
36457;SDS011;22480;50.546;12.292;2023-04-16T04:08:01;91.65;;;18.88;;
36457;SDS011;22480;50.546;12.292;2023-04-16T04:10:30;97.07;;;21.52;;
36457;SDS011;22480;50.546;12.292;2023-04-16T04:12:57;118.93;;;23.55;;
36457;SDS011;22480;50.546;12.292;2023-04-16T04:15:24;119.68;;;22.67;;
36457;SDS011;22480;50.546;12.292;2023-04-16T04:17:50;111.65;;;21.65;;
36457;SDS011;22480;50.546;12.292;2023-04-16T04:20:16;116.25;;;22.50;;
36457;SDS011;22480;50.546;12.292;2023-04-16T04:22:44;108.50;;;22.52;;
36457;SDS011;22480;50.546;12.292;2023-04-16T04:25:10;76.85;;;16.52;;
36457;SDS011;22480;50.546;12.292;2023-04-16T04:27:36;84.40;;;15.95;;
36457;SDS011;22480;50.546;12.292;2023-04-16T04:30:02;76.22;;;17.08;;
36457;SDS011;22480;50.546;12.292;2023-04-16T04:32:29;96.28;;;18.92;;
36457;SDS011;22480;50.546;12.292;2023-04-16T04:34:55;92.82;;;20.15;;
36457;SDS011;22480;50.546;12.292;2023-04-16T04:37:21;75.15;;;18.48;;
36457;SDS011;22480;50.546;12.292;2023-04-16T04:39:47;90.28;;;18.98;;
36457;SDS011;22480;50.546;12.292;2023-04-16T04:42:15;77.85;;;16.65;;
36457;SDS011;22480;50.546;12.292;2023-04-16T04:44:42;80.07;;;16.67;;
36457;SDS011;22480;50.546;12.292;2023-04-16T04:47:08;77.13;;;18.75;;
36457;SDS011;22480;50.546;12.292;2023-04-16T04:49:34;102.00;;;20.33;;
36457;SDS011;22480;50.546;12.292;2023-04-16T04:52:01;95.22;;;20.65;;
36457;SDS011;22480;50.546;12.292;2023-04-16T04:54:27;82.68;;;17.67;;
36457;SDS011;22480;50.546;12.292;2023-04-16T04:56:55;86.75;;;19.45;;
36457;SDS011;22480;50.546;12.292;2023-04-16T04:59:21;93.30;;;17.55;;
36457;SDS011;22480;50.546;12.292;2023-04-16T05:01:48;117.18;;;20.65;;
36457;SDS011;22480;50.546;12.292;2023-04-16T05:04:14;138.23;;;24.23;;
36457;SDS011;22480;50.546;12.292;2023-04-16T05:06:40;107.35;;;20.23;;
36457;SDS011;22480;50.546;12.292;2023-04-16T05:09:05;204.90;;;27.17;;
36457;SDS011;22480;50.546;12.292;2023-04-16T05:11:35;141.82;;;21.80;;
36457;SDS011;22480;50.546;12.292;2023-04-16T05:14:05;82.45;;;18.50;;
36457;SDS011;22480;50.546;12.292;2023-04-16T05:16:31;134.57;;;22.10;;
36457;SDS011;22480;50.546;12.292;2023-04-16T05:18:56;94.38;;;15.52;;
36457;SDS011;22480;50.546;12.292;2023-04-16T05:21:23;195.25;;;28.08;;
36457;SDS011;22480;50.546;12.292;2023-04-16T05:23:49;77.65;;;14.25;;
36457;SDS011;22480;50.546;12.292;2023-04-16T05:26:14;62.47;;;14.18;;
36457;SDS011;22480;50.546;12.292;2023-04-16T05:28:40;75.22;;;15.93;;
36457;SDS011;22480;50.546;12.292;2023-04-16T05:31:06;126.32;;;23.80;;
36457;SDS011;22480;50.546;12.292;2023-04-16T05:33:31;110.38;;;22.23;;
36457;SDS011;22480;50.546;12.292;2023-04-16T05:35:57;80.63;;;19.20;;
36457;SDS011;22480;50.546;12.292;2023-04-16T05:38:23;85.63;;;19.45;;
36457;SDS011;22480;50.546;12.292;2023-04-16T05:40:48;74.20;;;19.15;;
36457;SDS011;22480;50.546;12.292;2023-04-16T05:43:14;86.85;;;18.40;;
36457;SDS011;22480;50.546;12.292;2023-04-16T05:45:40;111.40;;;31.50;;
36457;SDS011;22480;50.546;12.292;2023-04-16T05:48:06;81.05;;;22.35;;
36457;SDS011;22480;50.546;12.292;2023-04-16T05:50:35;90.28;;;28.02;;
36457;SDS011;22480;50.546;12.292;2023-04-16T05:53:02;78.45;;;22.48;;
36457;SDS011;22480;50.546;12.292;2023-04-16T05:55:29;57.38;;;16.40;;
36457;SDS011;22480;50.546;12.292;2023-04-16T05:57:55;52.95;;;16.25;;
36457;SDS011;22480;50.546;12.292;2023-04-16T06:00:21;53.00;;;17.58;;
36457;SDS011;22480;50.546;12.292;2023-04-16T06:02:47;60.63;;;18.70;;
36457;SDS011;22480;50.546;12.292;2023-04-16T06:05:13;57.50;;;17.50;;
36457;SDS011;22480;50.546;12.292;2023-04-16T06:07:38;44.75;;;15.10;;
36457;SDS011;22480;50.546;12.292;2023-04-16T06:10:04;42.70;;;14.52;;
36457;SDS011;22480;50.546;12.292;2023-04-16T06:12:30;37.78;;;14.93;;
36457;SDS011;22480;50.546;12.292;2023-04-16T06:14:56;31.13;;;13.65;;
36457;SDS011;22480;50.546;12.292;2023-04-16T06:17:22;35.97;;;13.45;;
36457;SDS011;22480;50.546;12.292;2023-04-16T06:19:48;28.75;;;13.40;;
36457;SDS011;22480;50.546;12.292;2023-04-16T06:22:13;28.05;;;11.85;;
36457;SDS011;22480;50.546;12.292;2023-04-16T06:24:39;32.03;;;13.52;;
36457;SDS011;22480;50.546;12.292;2023-04-16T06:27:05;22.17;;;11.43;;
36457;SDS011;22480;50.546;12.292;2023-04-16T06:29:31;23.20;;;11.77;;
36457;SDS011;22480;50.546;12.292;2023-04-16T06:31:56;29.35;;;15.05;;
36457;SDS011;22480;50.546;12.292;2023-04-16T06:34:22;25.75;;;13.95;;
36457;SDS011;22480;50.546;12.292;2023-04-16T06:36:48;31.58;;;14.52;;
36457;SDS011;22480;50.546;12.292;2023-04-16T06:39:14;24.10;;;11.82;;
36457;SDS011;22480;50.546;12.292;2023-04-16T06:41:39;22.08;;;11.15;;
36457;SDS011;22480;50.546;12.292;2023-04-16T06:44:05;26.30;;;12.82;;
36457;SDS011;22480;50.546;12.292;2023-04-16T06:46:31;25.38;;;12.80;;
36457;SDS011;22480;50.546;12.292;2023-04-16T06:48:56;32.10;;;16.40;;
36457;SDS011;22480;50.546;12.292;2023-04-16T06:51:22;27.92;;;15.75;;
36457;SDS011;22480;50.546;12.292;2023-04-16T06:53:48;21.40;;;11.27;;
36457;SDS011;22480;50.546;12.292;2023-04-16T06:56:13;21.48;;;10.48;;
36457;SDS011;22480;50.546;12.292;2023-04-16T06:58:39;19.67;;;10.73;;
36457;SDS011;22480;50.546;12.292;2023-04-16T07:01:05;22.13;;;12.50;;
36457;SDS011;22480;50.546;12.292;2023-04-16T07:03:31;15.18;;;10.02;;
36457;SDS011;22480;50.546;12.292;2023-04-16T07:05:56;19.35;;;11.60;;
36457;SDS011;22480;50.546;12.292;2023-04-16T07:08:23;14.95;;;9.60;;
36457;SDS011;22480;50.546;12.292;2023-04-16T07:10:49;17.30;;;10.07;;
36457;SDS011;22480;50.546;12.292;2023-04-16T07:13:15;14.35;;;8.60;;
36457;SDS011;22480;50.546;12.292;2023-04-16T07:15:42;15.18;;;8.73;;
36457;SDS011;22480;50.546;12.292;2023-04-16T07:18:08;17.05;;;11.02;;
36457;SDS011;22480;50.546;12.292;2023-04-16T07:20:33;17.73;;;10.77;;
36457;SDS011;22480;50.546;12.292;2023-04-16T07:23:00;16.20;;;10.95;;
36457;SDS011;22480;50.546;12.292;2023-04-16T07:25:26;14.55;;;10.85;;
36457;SDS011;22480;50.546;12.292;2023-04-16T07:27:51;20.67;;;14.55;;
36457;SDS011;22480;50.546;12.292;2023-04-16T07:30:17;15.13;;;11.13;;
36457;SDS011;22480;50.546;12.292;2023-04-16T07:32:43;12.90;;;9.13;;
36457;SDS011;22480;50.546;12.292;2023-04-16T07:35:09;13.10;;;9.40;;
36457;SDS011;22480;50.546;12.292;2023-04-16T07:37:35;19.85;;;13.65;;
36457;SDS011;22480;50.546;12.292;2023-04-16T07:40:00;21.15;;;13.63;;
36457;SDS011;22480;50.546;12.292;2023-04-16T07:42:26;13.70;;;10.40;;
36457;SDS011;22480;50.546;12.292;2023-04-16T07:44:52;19.38;;;14.35;;
36457;SDS011;22480;50.546;12.292;2023-04-16T07:47:19;14.68;;;10.45;;
36457;SDS011;22480;50.546;12.292;2023-04-16T07:49:47;12.65;;;9.48;;
36457;SDS011;22480;50.546;12.292;2023-04-16T07:52:14;14.35;;;10.27;;
36457;SDS011;22480;50.546;12.292;2023-04-16T07:54:39;11.40;;;8.45;;
36457;SDS011;22480;50.546;12.292;2023-04-16T07:57:05;12.10;;;9.55;;
36457;SDS011;22480;50.546;12.292;2023-04-16T07:59:31;10.55;;;7.40;;
36457;SDS011;22480;50.546;12.292;2023-04-16T08:01:56;10.85;;;8.15;;
36457;SDS011;22480;50.546;12.292;2023-04-16T08:04:22;11.15;;;9.10;;
36457;SDS011;22480;50.546;12.292;2023-04-16T08:06:51;11.63;;;8.98;;
36457;SDS011;22480;50.546;12.292;2023-04-16T08:09:18;12.00;;;9.63;;
36457;SDS011;22480;50.546;12.292;2023-04-16T08:11:44;11.60;;;8.70;;
36457;SDS011;22480;50.546;12.292;2023-04-16T08:14:10;11.40;;;8.90;;
36457;SDS011;22480;50.546;12.292;2023-04-16T08:16:36;57.03;;;45.75;;
36457;SDS011;22480;50.546;12.292;2023-04-16T08:19:02;15.73;;;13.02;;
36457;SDS011;22480;50.546;12.292;2023-04-16T08:21:28;15.45;;;11.25;;
36457;SDS011;22480;50.546;12.292;2023-04-16T08:23:54;11.23;;;8.43;;
36457;SDS011;22480;50.546;12.292;2023-04-16T08:26:20;12.50;;;9.70;;
36457;SDS011;22480;50.546;12.292;2023-04-16T08:28:46;10.70;;;8.65;;
36457;SDS011;22480;50.546;12.292;2023-04-16T08:31:11;10.80;;;8.43;;
36457;SDS011;22480;50.546;12.292;2023-04-16T08:33:37;7.90;;;6.63;;
36457;SDS011;22480;50.546;12.292;2023-04-16T08:36:04;10.23;;;7.80;;
36457;SDS011;22480;50.546;12.292;2023-04-16T08:38:30;8.90;;;7.25;;
36457;SDS011;22480;50.546;12.292;2023-04-16T08:40:57;9.70;;;7.28;;
36457;SDS011;22480;50.546;12.292;2023-04-16T08:43:31;8.02;;;7.13;;
36457;SDS011;22480;50.546;12.292;2023-04-16T08:45:58;9.60;;;7.88;;
36457;SDS011;22480;50.546;12.292;2023-04-16T08:48:26;9.10;;;7.40;;
36457;SDS011;22480;50.546;12.292;2023-04-16T08:50:56;7.72;;;6.93;;
36457;SDS011;22480;50.546;12.292;2023-04-16T08:54:08;8.93;;;6.03;;
36457;SDS011;22480;50.546;12.292;2023-04-16T08:56:22;8.32;;;6.30;;
36457;SDS011;22480;50.546;12.292;2023-04-16T08:58:49;8.90;;;6.30;;
36457;SDS011;22480;50.546;12.292;2023-04-16T09:01:15;7.50;;;6.43;;
36457;SDS011;22480;50.546;12.292;2023-04-16T09:03:46;8.90;;;7.30;;
36457;SDS011;22480;50.546;12.292;2023-04-16T09:06:12;10.25;;;8.35;;
36457;SDS011;22480;50.546;12.292;2023-04-16T09:08:39;9.15;;;8.07;;
36457;SDS011;22480;50.546;12.292;2023-04-16T09:11:05;9.00;;;7.10;;
36457;SDS011;22480;50.546;12.292;2023-04-16T09:13:31;8.20;;;7.15;;
36457;SDS011;22480;50.546;12.292;2023-04-16T09:15:57;8.15;;;6.95;;
36457;SDS011;22480;50.546;12.292;2023-04-16T09:18:23;11.00;;;9.98;;
36457;SDS011;22480;50.546;12.292;2023-04-16T09:20:50;8.88;;;7.13;;
36457;SDS011;22480;50.546;12.292;2023-04-16T09:23:16;7.72;;;6.50;;
36457;SDS011;22480;50.546;12.292;2023-04-16T09:25:42;8.85;;;6.68;;
36457;SDS011;22480;50.546;12.292;2023-04-16T09:28:08;7.25;;;6.55;;
36457;SDS011;22480;50.546;12.292;2023-04-16T09:30:35;9.02;;;7.18;;
36457;SDS011;22480;50.546;12.292;2023-04-16T09:33:16;8.77;;;6.93;;
36457;SDS011;22480;50.546;12.292;2023-04-16T09:35:49;7.32;;;6.28;;
36457;SDS011;22480;50.546;12.292;2023-04-16T09:38:17;12.18;;;10.95;;
36457;SDS011;22480;50.546;12.292;2023-04-16T09:40:43;6.15;;;5.40;;
36457;SDS011;22480;50.546;12.292;2023-04-16T09:43:15;6.55;;;5.88;;
36457;SDS011;22480;50.546;12.292;2023-04-16T09:45:47;6.57;;;5.82;;
36457;SDS011;22480;50.546;12.292;2023-04-16T09:48:32;4.90;;;4.43;;
36457;SDS011;22480;50.546;12.292;2023-04-16T09:50:58;6.95;;;5.55;;
36457;SDS011;22480;50.546;12.292;2023-04-16T09:53:29;6.03;;;5.28;;
36457;SDS011;22480;50.546;12.292;2023-04-16T09:55:59;6.10;;;4.68;;
36457;SDS011;22480;50.546;12.292;2023-04-16T09:58:26;3.70;;;3.30;;
36457;SDS011;22480;50.546;12.292;2023-04-16T10:01:02;4.82;;;3.78;;
36457;SDS011;22480;50.546;12.292;2023-04-16T10:03:32;4.60;;;3.78;;
36457;SDS011;22480;50.546;12.292;2023-04-16T10:06:02;3.92;;;3.53;;
36457;SDS011;22480;50.546;12.292;2023-04-16T10:08:31;5.20;;;3.65;;
36457;SDS011;22480;50.546;12.292;2023-04-16T10:10:57;3.10;;;2.58;;
36457;SDS011;22480;50.546;12.292;2023-04-16T10:13:23;3.65;;;2.95;;
36457;SDS011;22480;50.546;12.292;2023-04-16T10:15:54;2.40;;;2.10;;
36457;SDS011;22480;50.546;12.292;2023-04-16T10:18:20;3.35;;;2.60;;
36457;SDS011;22480;50.546;12.292;2023-04-16T10:20:47;3.45;;;2.95;;
36457;SDS011;22480;50.546;12.292;2023-04-16T10:23:14;3.33;;;2.50;;
36457;SDS011;22480;50.546;12.292;2023-04-16T10:25:40;3.28;;;2.67;;
36457;SDS011;22480;50.546;12.292;2023-04-16T10:28:08;3.60;;;2.35;;
36457;SDS011;22480;50.546;12.292;2023-04-16T10:30:34;2.90;;;2.35;;
36457;SDS011;22480;50.546;12.292;2023-04-16T10:33:01;4.10;;;3.00;;
36457;SDS011;22480;50.546;12.292;2023-04-16T10:35:29;3.88;;;3.15;;
36457;SDS011;22480;50.546;12.292;2023-04-16T10:37:55;2.50;;;2.30;;
36457;SDS011;22480;50.546;12.292;2023-04-16T10:40:25;2.60;;;2.20;;
36457;SDS011;22480;50.546;12.292;2023-04-16T10:42:57;2.85;;;2.50;;
36457;SDS011;22480;50.546;12.292;2023-04-16T10:45:29;3.97;;;2.75;;
36457;SDS011;22480;50.546;12.292;2023-04-16T10:48:05;2.88;;;2.55;;
36457;SDS011;22480;50.546;12.292;2023-04-16T10:50:37;3.17;;;2.60;;
36457;SDS011;22480;50.546;12.292;2023-04-16T10:53:36;4.30;;;3.15;;
36457;SDS011;22480;50.546;12.292;2023-04-16T10:58:28;3.60;;;3.10;;
36457;SDS011;22480;50.546;12.292;2023-04-16T11:00:58;3.53;;;3.05;;
36457;SDS011;22480;50.546;12.292;2023-04-16T11:03:24;4.20;;;3.80;;
36457;SDS011;22480;50.546;12.292;2023-04-16T11:05:50;4.25;;;3.85;;
36457;SDS011;22480;50.546;12.292;2023-04-16T11:08:16;5.10;;;3.72;;
36457;SDS011;22480;50.546;12.292;2023-04-16T11:10:42;5.13;;;4.63;;
36457;SDS011;22480;50.546;12.292;2023-04-16T11:13:07;4.65;;;3.95;;
36457;SDS011;22480;50.546;12.292;2023-04-16T11:15:35;4.78;;;4.28;;
36457;SDS011;22480;50.546;12.292;2023-04-16T11:18:01;4.53;;;4.07;;
36457;SDS011;22480;50.546;12.292;2023-04-16T11:20:28;7.13;;;5.63;;
36457;SDS011;22480;50.546;12.292;2023-04-16T11:22:54;5.50;;;4.88;;
36457;SDS011;22480;50.546;12.292;2023-04-16T11:25:24;4.93;;;4.20;;
36457;SDS011;22480;50.546;12.292;2023-04-16T11:27:51;5.15;;;4.30;;
36457;SDS011;22480;50.546;12.292;2023-04-16T11:30:27;5.28;;;4.78;;
36457;SDS011;22480;50.546;12.292;2023-04-16T11:32:53;5.50;;;4.82;;
36457;SDS011;22480;50.546;12.292;2023-04-16T11:35:19;4.93;;;4.43;;
36457;SDS011;22480;50.546;12.292;2023-04-16T11:37:45;6.03;;;4.88;;
36457;SDS011;22480;50.546;12.292;2023-04-16T11:40:14;5.70;;;5.00;;
36457;SDS011;22480;50.546;12.292;2023-04-16T11:42:40;5.82;;;5.07;;
36457;SDS011;22480;50.546;12.292;2023-04-16T11:45:10;7.35;;;5.68;;
36457;SDS011;22480;50.546;12.292;2023-04-16T11:47:43;6.03;;;5.43;;
36457;SDS011;22480;50.546;12.292;2023-04-16T11:50:33;5.80;;;5.20;;
36457;SDS011;22480;50.546;12.292;2023-04-16T11:53:03;5.80;;;5.25;;
36457;SDS011;22480;50.546;12.292;2023-04-16T11:55:30;4.47;;;4.05;;
36457;SDS011;22480;50.546;12.292;2023-04-16T11:57:56;4.30;;;3.70;;
36457;SDS011;22480;50.546;12.292;2023-04-16T12:00:21;5.00;;;3.58;;
36457;SDS011;22480;50.546;12.292;2023-04-16T12:02:51;3.30;;;3.00;;
36457;SDS011;22480;50.546;12.292;2023-04-16T12:07:58;4.18;;;3.55;;
36457;SDS011;22480;50.546;12.292;2023-04-16T12:10:27;7.43;;;5.03;;
36457;SDS011;22480;50.546;12.292;2023-04-16T12:12:53;5.63;;;5.07;;
36457;SDS011;22480;50.546;12.292;2023-04-16T12:15:20;5.90;;;5.00;;
36457;SDS011;22480;50.546;12.292;2023-04-16T12:17:45;5.18;;;4.68;;
36457;SDS011;22480;50.546;12.292;2023-04-16T12:20:12;4.80;;;4.28;;
36457;SDS011;22480;50.546;12.292;2023-04-16T12:22:42;6.00;;;5.40;;
36457;SDS011;22480;50.546;12.292;2023-04-16T12:25:10;5.88;;;5.22;;
36457;SDS011;22480;50.546;12.292;2023-04-16T12:27:43;7.13;;;5.75;;
36457;SDS011;22480;50.546;12.292;2023-04-16T12:30:11;7.57;;;5.28;;
36457;SDS011;22480;50.546;12.292;2023-04-16T12:32:41;4.82;;;4.32;;
36457;SDS011;22480;50.546;12.292;2023-04-16T12:35:09;5.20;;;4.70;;
36457;SDS011;22480;50.546;12.292;2023-04-16T12:37:35;5.38;;;4.88;;
36457;SDS011;22480;50.546;12.292;2023-04-16T12:40:01;6.78;;;5.30;;
36457;SDS011;22480;50.546;12.292;2023-04-16T12:42:29;4.75;;;4.18;;
36457;SDS011;22480;50.546;12.292;2023-04-16T12:45:02;6.95;;;5.65;;
36457;SDS011;22480;50.546;12.292;2023-04-16T12:47:30;6.30;;;5.70;;
36457;SDS011;22480;50.546;12.292;2023-04-16T12:49:56;6.90;;;5.63;;
36457;SDS011;22480;50.546;12.292;2023-04-16T12:52:22;7.63;;;5.78;;
36457;SDS011;22480;50.546;12.292;2023-04-16T12:54:49;8.55;;;7.03;;
36457;SDS011;22480;50.546;12.292;2023-04-16T12:57:15;10.30;;;7.50;;
36457;SDS011;22480;50.546;12.292;2023-04-16T12:59:40;9.00;;;6.72;;
36457;SDS011;22480;50.546;12.292;2023-04-16T13:02:06;8.15;;;6.80;;
36457;SDS011;22480;50.546;12.292;2023-04-16T13:04:32;9.18;;;6.30;;
36457;SDS011;22480;50.546;12.292;2023-04-16T13:06:58;9.50;;;7.38;;
36457;SDS011;22480;50.546;12.292;2023-04-16T13:09:24;11.15;;;8.25;;
36457;SDS011;22480;50.546;12.292;2023-04-16T13:11:51;15.35;;;7.90;;
36457;SDS011;22480;50.546;12.292;2023-04-16T13:14:16;9.10;;;7.70;;
36457;SDS011;22480;50.546;12.292;2023-04-16T13:16:43;10.55;;;7.60;;
36457;SDS011;22480;50.546;12.292;2023-04-16T13:19:08;9.32;;;7.07;;
36457;SDS011;22480;50.546;12.292;2023-04-16T13:21:34;13.82;;;6.68;;
36457;SDS011;22480;50.546;12.292;2023-04-16T13:24:00;10.70;;;6.38;;
36457;SDS011;22480;50.546;12.292;2023-04-16T13:26:25;8.13;;;6.85;;
36457;SDS011;22480;50.546;12.292;2023-04-16T13:28:51;16.27;;;5.97;;
36457;SDS011;22480;50.546;12.292;2023-04-16T13:31:17;14.13;;;5.22;;
36457;SDS011;22480;50.546;12.292;2023-04-16T13:33:45;4.00;;;3.28;;
36457;SDS011;22480;50.546;12.292;2023-04-16T13:36:11;4.85;;;4.22;;
36457;SDS011;22480;50.546;12.292;2023-04-16T13:38:36;6.25;;;3.55;;
36457;SDS011;22480;50.546;12.292;2023-04-16T13:41:03;3.95;;;3.53;;
36457;SDS011;22480;50.546;12.292;2023-04-16T13:43:30;22.90;;;5.72;;
36457;SDS011;22480;50.546;12.292;2023-04-16T13:45:59;4.75;;;3.88;;
36457;SDS011;22480;50.546;12.292;2023-04-16T13:48:26;24.35;;;6.28;;
36457;SDS011;22480;50.546;12.292;2023-04-16T13:50:52;13.13;;;5.90;;
36457;SDS011;22480;50.546;12.292;2023-04-16T13:53:18;3.50;;;3.20;;
36457;SDS011;22480;50.546;12.292;2023-04-16T13:55:44;4.68;;;3.90;;
36457;SDS011;22480;50.546;12.292;2023-04-16T13:58:10;6.13;;;3.90;;
36457;SDS011;22480;50.546;12.292;2023-04-16T14:00:36;4.40;;;3.78;;
36457;SDS011;22480;50.546;12.292;2023-04-16T14:03:02;5.45;;;3.45;;
36457;SDS011;22480;50.546;12.292;2023-04-16T14:05:30;4.40;;;4.00;;
36457;SDS011;22480;50.546;12.292;2023-04-16T14:07:55;3.78;;;3.42;;
36457;SDS011;22480;50.546;12.292;2023-04-16T14:10:22;4.68;;;3.60;;
36457;SDS011;22480;50.546;12.292;2023-04-16T14:12:47;4.07;;;3.70;;
36457;SDS011;22480;50.546;12.292;2023-04-16T14:15:13;4.93;;;4.18;;
36457;SDS011;22480;50.546;12.292;2023-04-16T14:17:40;14.32;;;6.32;;
36457;SDS011;22480;50.546;12.292;2023-04-16T14:20:07;8.57;;;4.70;;